Terminal Aerodrome Forecast
Issued by NWS

Home | Current Version | Previous Version | Text Only | Print | Product List | Glossary On
Versions: 1 2 3 4 5 6 7 8 9 10 11 12 13
000
FTUS43 KJKL 201738
TAFSME
TAF
KSME 201738Z 2018/2118 VRB04KT P6SM FEW035 SCT070
     FM210900 VRB03KT 3SM BR FEW100 FEW200
     FM211300 VRB03KT P6SM FEW015 SCT090
     FM211500 VRB03KT P6SM FEW090 SCT200=

USA.gov is the U.S. government's official web portal to all federal, state and local government web resources and services.